sensor_id;sensor_type;location;lat;lon;timestamp;temperature;humidity
22319;DHT22;11327;52.334;9.506;2023-03-25T00:00:01;10.20;99.90
22319;DHT22;11327;52.334;9.506;2023-03-25T00:03:29;10.40;99.90
22319;DHT22;11327;52.334;9.506;2023-03-25T00:06:50;10.20;99.90
22319;DHT22;11327;52.334;9.506;2023-03-25T00:10:13;10.20;99.90
22319;DHT22;11327;52.334;9.506;2023-03-25T00:13:34;10.20;99.90
22319;DHT22;11327;52.334;9.506;2023-03-25T00:16:54;10.20;99.90
22319;DHT22;11327;52.334;9.506;2023-03-25T00:20:15;10.20;99.90
22319;DHT22;11327;52.334;9.506;2023-03-25T00:23:37;10.20;99.90
22319;DHT22;11327;52.334;9.506;2023-03-25T00:26:58;10.10;99.90
22319;DHT22;11327;52.334;9.506;2023-03-25T00:30:19;10.20;99.90
22319;DHT22;11327;52.334;9.506;2023-03-25T00:33:41;10.10;99.90
22319;DHT22;11327;52.334;9.506;2023-03-25T00:37:01;10.20;99.90
22319;DHT22;11327;52.334;9.506;2023-03-25T00:40:23;10.10;99.90
22319;DHT22;11327;52.334;9.506;2023-03-25T00:43:44;10.10;99.90
22319;DHT22;11327;52.334;9.506;2023-03-25T00:47:05;10.10;99.90
22319;DHT22;11327;52.334;9.506;2023-03-25T00:50:25;10.10;99.90
22319;DHT22;11327;52.334;9.506;2023-03-25T00:53:49;10.10;99.90
22319;DHT22;11327;52.334;9.506;2023-03-25T00:57:12;10.10;99.90
22319;DHT22;11327;52.334;9.506;2023-03-25T01:00:32;10.10;99.90
22319;DHT22;11327;52.334;9.506;2023-03-25T01:03:56;10.00;99.90
22319;DHT22;11327;52.334;9.506;2023-03-25T01:07:19;10.00;99.90
22319;DHT22;11327;52.334;9.506;2023-03-25T01:10:40;10.00;99.90
22319;DHT22;11327;52.334;9.506;2023-03-25T01:14:02;10.10;99.90
22319;DHT22;11327;52.334;9.506;2023-03-25T01:17:23;10.10;99.90
22319;DHT22;11327;52.334;9.506;2023-03-25T01:20:44;10.10;99.90
22319;DHT22;11327;52.334;9.506;2023-03-25T01:24:06;10.10;99.90
22319;DHT22;11327;52.334;9.506;2023-03-25T01:27:27;10.10;99.90
22319;DHT22;11327;52.334;9.506;2023-03-25T01:30:47;10.20;99.90
22319;DHT22;11327;52.334;9.506;2023-03-25T01:34:09;10.20;99.90
22319;DHT22;11327;52.334;9.506;2023-03-25T01:37:30;10.20;99.90
22319;DHT22;11327;52.334;9.506;2023-03-25T01:40:53;10.20;99.90
22319;DHT22;11327;52.334;9.506;2023-03-25T01:47:42;10.20;99.90
22319;DHT22;11327;52.334;9.506;2023-03-25T01:51:13;10.30;99.90
22319;DHT22;11327;52.334;9.506;2023-03-25T01:54:34;10.20;99.90
22319;DHT22;11327;52.334;9.506;2023-03-25T01:57:58;10.20;99.90
22319;DHT22;11327;52.334;9.506;2023-03-25T02:01:20;10.20;99.90
22319;DHT22;11327;52.334;9.506;2023-03-25T02:04:59;10.20;99.90
22319;DHT22;11327;52.334;9.506;2023-03-25T02:08:22;10.00;99.90
22319;DHT22;11327;52.334;9.506;2023-03-25T02:11:43;10.00;99.90
22319;DHT22;11327;52.334;9.506;2023-03-25T02:15:06;9.90;99.90
22319;DHT22;11327;52.334;9.506;2023-03-25T02:26:15;9.60;99.90
22319;DHT22;11327;52.334;9.506;2023-03-25T02:37:10;9.60;99.90
22319;DHT22;11327;52.334;9.506;2023-03-25T02:40:35;9.50;99.90
22319;DHT22;11327;52.334;9.506;2023-03-25T02:47:22;9.60;99.90
22319;DHT22;11327;52.334;9.506;2023-03-25T02:50:52;9.60;99.90
22319;DHT22;11327;52.334;9.506;2023-03-25T02:54:12;9.60;99.90
22319;DHT22;11327;52.334;9.506;2023-03-25T02:57:38;9.60;99.90
22319;DHT22;11327;52.334;9.506;2023-03-25T03:01:00;9.60;99.90
22319;DHT22;11327;52.334;9.506;2023-03-25T03:04:21;9.60;99.90
22319;DHT22;11327;52.334;9.506;2023-03-25T03:07:43;9.50;99.90
22319;DHT22;11327;52.334;9.506;2023-03-25T03:11:30;9.50;99.90
22319;DHT22;11327;52.334;9.506;2023-03-25T03:18:43;9.40;99.90
22319;DHT22;11327;52.334;9.506;2023-03-25T03:26:11;9.40;99.90
22319;DHT22;11327;52.334;9.506;2023-03-25T03:29:44;9.40;99.90
22319;DHT22;11327;52.334;9.506;2023-03-25T03:33:18;9.40;99.90
22319;DHT22;11327;52.334;9.506;2023-03-25T03:36:44;9.40;99.90
22319;DHT22;11327;52.334;9.506;2023-03-25T03:40:16;9.40;99.90
22319;DHT22;11327;52.334;9.506;2023-03-25T03:47:13;9.40;99.90
22319;DHT22;11327;52.334;9.506;2023-03-25T03:50:51;9.40;99.90
22319;DHT22;11327;52.334;9.506;2023-03-25T03:54:16;9.40;99.90
22319;DHT22;11327;52.334;9.506;2023-03-25T03:57:40;9.30;99.90
22319;DHT22;11327;52.334;9.506;2023-03-25T04:01:17;9.30;99.90
22319;DHT22;11327;52.334;9.506;2023-03-25T04:04:39;9.30;99.90
22319;DHT22;11327;52.334;9.506;2023-03-25T04:08:08;9.30;99.90
22319;DHT22;11327;52.334;9.506;2023-03-25T04:11:47;9.30;99.90
22319;DHT22;11327;52.334;9.506;2023-03-25T04:15:08;9.30;99.90
22319;DHT22;11327;52.334;9.506;2023-03-25T04:18:29;9.30;99.90
22319;DHT22;11327;52.334;9.506;2023-03-25T04:21:52;9.30;99.90
22319;DHT22;11327;52.334;9.506;2023-03-25T04:25:13;9.10;99.90
22319;DHT22;11327;52.334;9.506;2023-03-25T04:28:34;9.00;99.90
22319;DHT22;11327;52.334;9.506;2023-03-25T04:31:56;9.00;99.90
22319;DHT22;11327;52.334;9.506;2023-03-25T04:35:18;9.00;99.90
22319;DHT22;11327;52.334;9.506;2023-03-25T04:38:39;9.00;99.90
22319;DHT22;11327;52.334;9.506;2023-03-25T04:42:00;9.00;99.90
22319;DHT22;11327;52.334;9.506;2023-03-25T04:45:21;9.00;99.90
22319;DHT22;11327;52.334;9.506;2023-03-25T04:48:44;9.00;99.90
22319;DHT22;11327;52.334;9.506;2023-03-25T04:52:06;9.00;99.90
22319;DHT22;11327;52.334;9.506;2023-03-25T04:55:28;9.00;99.90
22319;DHT22;11327;52.334;9.506;2023-03-25T04:58:49;8.90;99.90
22319;DHT22;11327;52.334;9.506;2023-03-25T05:02:10;8.90;99.90
22319;DHT22;11327;52.334;9.506;2023-03-25T05:05:32;8.80;99.90
22319;DHT22;11327;52.334;9.506;2023-03-25T05:08:53;8.70;99.90
22319;DHT22;11327;52.334;9.506;2023-03-25T05:12:13;8.70;99.90
22319;DHT22;11327;52.334;9.506;2023-03-25T05:15:36;8.60;99.90
22319;DHT22;11327;52.334;9.506;2023-03-25T05:18:59;8.60;99.90
22319;DHT22;11327;52.334;9.506;2023-03-25T05:22:22;8.50;99.90
22319;DHT22;11327;52.334;9.506;2023-03-25T05:25:47;8.60;99.90
22319;DHT22;11327;52.334;9.506;2023-03-25T05:29:11;8.50;99.90
22319;DHT22;11327;52.334;9.506;2023-03-25T05:32:35;8.50;99.90
22319;DHT22;11327;52.334;9.506;2023-03-25T05:35:56;8.50;99.90
22319;DHT22;11327;52.334;9.506;2023-03-25T05:39:17;8.50;99.90
22319;DHT22;11327;52.334;9.506;2023-03-25T05:42:37;8.50;99.90
22319;DHT22;11327;52.334;9.506;2023-03-25T05:45:58;8.50;99.90
22319;DHT22;11327;52.334;9.506;2023-03-25T05:49:19;8.70;99.90
22319;DHT22;11327;52.334;9.506;2023-03-25T05:52:41;8.70;99.90
22319;DHT22;11327;52.334;9.506;2023-03-25T05:56:02;8.70;99.90
22319;DHT22;11327;52.334;9.506;2023-03-25T05:59:23;8.80;99.90
22319;DHT22;11327;52.334;9.506;2023-03-25T06:02:44;8.80;99.90
22319;DHT22;11327;52.334;9.506;2023-03-25T06:06:07;8.80;99.90
22319;DHT22;11327;52.334;9.506;2023-03-25T06:09:29;8.80;99.90
22319;DHT22;11327;52.334;9.506;2023-03-25T06:12:50;8.80;99.90
22319;DHT22;11327;52.334;9.506;2023-03-25T06:16:13;8.80;99.90
22319;DHT22;11327;52.334;9.506;2023-03-25T06:19:36;8.80;99.90
22319;DHT22;11327;52.334;9.506;2023-03-25T06:22:59;8.90;99.90
22319;DHT22;11327;52.334;9.506;2023-03-25T06:26:22;9.00;99.90
22319;DHT22;11327;52.334;9.506;2023-03-25T06:29:45;9.00;99.90
22319;DHT22;11327;52.334;9.506;2023-03-25T06:33:06;9.10;99.90
22319;DHT22;11327;52.334;9.506;2023-03-25T06:36:29;9.20;99.90
22319;DHT22;11327;52.334;9.506;2023-03-25T06:39:51;9.20;99.90
22319;DHT22;11327;52.334;9.506;2023-03-25T06:43:14;9.20;99.90
22319;DHT22;11327;52.334;9.506;2023-03-25T06:46:35;9.10;99.90
22319;DHT22;11327;52.334;9.506;2023-03-25T06:49:56;9.20;99.90
22319;DHT22;11327;52.334;9.506;2023-03-25T06:53:17;9.20;99.90
22319;DHT22;11327;52.334;9.506;2023-03-25T06:56:37;9.20;99.90
22319;DHT22;11327;52.334;9.506;2023-03-25T06:59:58;9.30;99.90
22319;DHT22;11327;52.334;9.506;2023-03-25T07:03:19;9.40;99.90
22319;DHT22;11327;52.334;9.506;2023-03-25T07:06:40;9.30;99.90
22319;DHT22;11327;52.334;9.506;2023-03-25T07:10:00;9.40;99.90
22319;DHT22;11327;52.334;9.506;2023-03-25T07:13:21;9.50;99.90
22319;DHT22;11327;52.334;9.506;2023-03-25T07:16:42;9.50;99.90
22319;DHT22;11327;52.334;9.506;2023-03-25T07:20:05;9.70;99.90
22319;DHT22;11327;52.334;9.506;2023-03-25T07:23:26;9.60;99.90
22319;DHT22;11327;52.334;9.506;2023-03-25T07:26:46;9.60;99.90
22319;DHT22;11327;52.334;9.506;2023-03-25T07:30:08;9.60;99.90
22319;DHT22;11327;52.334;9.506;2023-03-25T07:33:29;9.60;99.90
22319;DHT22;11327;52.334;9.506;2023-03-25T07:36:49;9.50;99.90
22319;DHT22;11327;52.334;9.506;2023-03-25T07:40:10;9.30;99.90
22319;DHT22;11327;52.334;9.506;2023-03-25T07:43:31;9.20;99.90
22319;DHT22;11327;52.334;9.506;2023-03-25T07:46:52;9.10;99.90
22319;DHT22;11327;52.334;9.506;2023-03-25T07:50:13;9.10;99.90
22319;DHT22;11327;52.334;9.506;2023-03-25T07:53:34;9.20;99.90
22319;DHT22;11327;52.334;9.506;2023-03-25T07:56:56;9.30;99.90
22319;DHT22;11327;52.334;9.506;2023-03-25T08:00:18;9.30;99.90
22319;DHT22;11327;52.334;9.506;2023-03-25T08:03:39;9.40;99.90
22319;DHT22;11327;52.334;9.506;2023-03-25T08:07:00;9.60;99.90
22319;DHT22;11327;52.334;9.506;2023-03-25T08:10:20;9.80;99.90
22319;DHT22;11327;52.334;9.506;2023-03-25T08:13:41;9.80;99.90
22319;DHT22;11327;52.334;9.506;2023-03-25T08:17:04;9.70;99.90
22319;DHT22;11327;52.334;9.506;2023-03-25T08:20:25;9.80;99.90
22319;DHT22;11327;52.334;9.506;2023-03-25T08:23:46;9.80;99.90
22319;DHT22;11327;52.334;9.506;2023-03-25T08:27:08;9.70;99.90
22319;DHT22;11327;52.334;9.506;2023-03-25T08:30:28;9.80;99.90
22319;DHT22;11327;52.334;9.506;2023-03-25T08:33:49;9.90;99.90
22319;DHT22;11327;52.334;9.506;2023-03-25T08:37:10;10.00;99.90
22319;DHT22;11327;52.334;9.506;2023-03-25T08:40:35;10.00;99.90
22319;DHT22;11327;52.334;9.506;2023-03-25T08:43:55;9.90;99.90
22319;DHT22;11327;52.334;9.506;2023-03-25T08:47:16;9.70;99.90
22319;DHT22;11327;52.334;9.506;2023-03-25T08:50:37;9.60;99.90
22319;DHT22;11327;52.334;9.506;2023-03-25T08:53:57;9.50;99.90
22319;DHT22;11327;52.334;9.506;2023-03-25T08:57:18;9.50;99.90
22319;DHT22;11327;52.334;9.506;2023-03-25T09:00:39;9.60;99.90
22319;DHT22;11327;52.334;9.506;2023-03-25T09:03:59;9.70;99.90
22319;DHT22;11327;52.334;9.506;2023-03-25T09:07:20;9.90;99.90
22319;DHT22;11327;52.334;9.506;2023-03-25T09:10:42;10.00;99.90
22319;DHT22;11327;52.334;9.506;2023-03-25T09:14:03;9.80;99.90
22319;DHT22;11327;52.334;9.506;2023-03-25T09:17:24;9.70;99.90
22319;DHT22;11327;52.334;9.506;2023-03-25T09:20:45;9.80;99.90
22319;DHT22;11327;52.334;9.506;2023-03-25T09:24:08;9.80;99.90
22319;DHT22;11327;52.334;9.506;2023-03-25T09:27:29;9.80;99.90
22319;DHT22;11327;52.334;9.506;2023-03-25T09:30:50;9.90;99.90
22319;DHT22;11327;52.334;9.506;2023-03-25T09:34:12;10.00;99.90
22319;DHT22;11327;52.334;9.506;2023-03-25T09:37:33;10.00;99.90
22319;DHT22;11327;52.334;9.506;2023-03-25T09:40:54;10.10;99.90
22319;DHT22;11327;52.334;9.506;2023-03-25T09:44:18;10.10;99.90
22319;DHT22;11327;52.334;9.506;2023-03-25T09:47:55;10.20;99.90
22319;DHT22;11327;52.334;9.506;2023-03-25T09:51:31;10.30;99.90
22319;DHT22;11327;52.334;9.506;2023-03-25T09:55:05;10.40;99.90
22319;DHT22;11327;52.334;9.506;2023-03-25T09:58:32;10.50;99.90
22319;DHT22;11327;52.334;9.506;2023-03-25T10:09:04;11.20;99.90
22319;DHT22;11327;52.334;9.506;2023-03-25T10:12:43;11.40;99.90
22319;DHT22;11327;52.334;9.506;2023-03-25T10:19:56;11.60;99.90
22319;DHT22;11327;52.334;9.506;2023-03-25T10:23:29;11.60;99.90
22319;DHT22;11327;52.334;9.506;2023-03-25T10:30:24;11.70;99.90
22319;DHT22;11327;52.334;9.506;2023-03-25T10:33:53;11.90;99.90
22319;DHT22;11327;52.334;9.506;2023-03-25T10:37:24;11.90;99.90
22319;DHT22;11327;52.334;9.506;2023-03-25T10:40:50;11.90;99.90
22319;DHT22;11327;52.334;9.506;2023-03-25T10:44:12;12.00;99.90
22319;DHT22;11327;52.334;9.506;2023-03-25T10:47:35;12.00;99.90
22319;DHT22;11327;52.334;9.506;2023-03-25T10:51:10;12.20;99.90
22319;DHT22;11327;52.334;9.506;2023-03-25T10:54:35;12.10;99.90
22319;DHT22;11327;52.334;9.506;2023-03-25T10:57:56;12.20;99.90
22319;DHT22;11327;52.334;9.506;2023-03-25T11:01:19;12.30;99.90
22319;DHT22;11327;52.334;9.506;2023-03-25T11:04:42;12.30;99.90
22319;DHT22;11327;52.334;9.506;2023-03-25T11:08:03;12.20;99.90
22319;DHT22;11327;52.334;9.506;2023-03-25T11:11:31;12.10;99.90
22319;DHT22;11327;52.334;9.506;2023-03-25T11:14:56;12.20;99.90
22319;DHT22;11327;52.334;9.506;2023-03-25T11:18:29;12.20;99.90
22319;DHT22;11327;52.334;9.506;2023-03-25T11:21:56;12.60;99.90
22319;DHT22;11327;52.334;9.506;2023-03-25T11:25:23;12.80;99.90
22319;DHT22;11327;52.334;9.506;2023-03-25T11:28:59;13.00;99.90
22319;DHT22;11327;52.334;9.506;2023-03-25T11:32:23;12.80;99.90
22319;DHT22;11327;52.334;9.506;2023-03-25T11:35:45;12.70;99.90
22319;DHT22;11327;52.334;9.506;2023-03-25T11:39:13;12.50;99.90
22319;DHT22;11327;52.334;9.506;2023-03-25T11:42:36;12.40;99.90
22319;DHT22;11327;52.334;9.506;2023-03-25T11:45:57;12.30;99.90
22319;DHT22;11327;52.334;9.506;2023-03-25T11:49:21;12.40;99.90
22319;DHT22;11327;52.334;9.506;2023-03-25T11:52:44;12.80;99.90
22319;DHT22;11327;52.334;9.506;2023-03-25T11:56:09;12.70;99.90
22319;DHT22;11327;52.334;9.506;2023-03-25T11:59:36;12.50;99.90
22319;DHT22;11327;52.334;9.506;2023-03-25T12:06:34;12.60;99.90
22319;DHT22;11327;52.334;9.506;2023-03-25T12:09:57;12.90;99.90
22319;DHT22;11327;52.334;9.506;2023-03-25T12:13:34;12.90;99.90
22319;DHT22;11327;52.334;9.506;2023-03-25T12:21:06;12.60;99.90
22319;DHT22;11327;52.334;9.506;2023-03-25T12:24:36;12.40;99.90
22319;DHT22;11327;52.334;9.506;2023-03-25T12:32:10;12.10;99.90
22319;DHT22;11327;52.334;9.506;2023-03-25T12:43:10;12.20;99.90
22319;DHT22;11327;52.334;9.506;2023-03-25T12:50:19;12.70;99.90
22319;DHT22;11327;52.334;9.506;2023-03-25T13:01:40;13.10;99.90
22319;DHT22;11327;52.334;9.506;2023-03-25T13:05:04;13.00;99.90
22319;DHT22;11327;52.334;9.506;2023-03-25T13:08:31;12.90;99.90
22319;DHT22;11327;52.334;9.506;2023-03-25T13:12:31;12.60;99.90
22319;DHT22;11327;52.334;9.506;2023-03-25T13:15:59;12.40;99.90
22319;DHT22;11327;52.334;9.506;2023-03-25T13:19:23;12.30;99.90
22319;DHT22;11327;52.334;9.506;2023-03-25T13:22:47;12.20;99.90
22319;DHT22;11327;52.334;9.506;2023-03-25T13:26:18;12.10;99.90
22319;DHT22;11327;52.334;9.506;2023-03-25T13:29:45;12.00;99.90
22319;DHT22;11327;52.334;9.506;2023-03-25T13:33:15;12.00;99.90
22319;DHT22;11327;52.334;9.506;2023-03-25T13:36:41;11.90;99.90
22319;DHT22;11327;52.334;9.506;2023-03-25T13:40:25;11.70;99.90
22319;DHT22;11327;52.334;9.506;2023-03-25T13:47:24;11.10;99.90
22319;DHT22;11327;52.334;9.506;2023-03-25T13:50:44;11.00;99.90
22319;DHT22;11327;52.334;9.506;2023-03-25T13:54:21;10.80;99.90
22319;DHT22;11327;52.334;9.506;2023-03-25T13:57:56;10.70;99.90
22319;DHT22;11327;52.334;9.506;2023-03-25T14:09:03;10.70;99.90
22319;DHT22;11327;52.334;9.506;2023-03-25T14:12:34;10.60;99.90
22319;DHT22;11327;52.334;9.506;2023-03-25T14:19:34;10.40;99.90
22319;DHT22;11327;52.334;9.506;2023-03-25T14:23:03;10.20;99.90
22319;DHT22;11327;52.334;9.506;2023-03-25T14:26:25;10.20;99.90
22319;DHT22;11327;52.334;9.506;2023-03-25T14:30:04;10.20;99.90
22319;DHT22;11327;52.334;9.506;2023-03-25T14:33:25;10.30;99.90
22319;DHT22;11327;52.334;9.506;2023-03-25T14:43:57;10.20;99.90
22319;DHT22;11327;52.334;9.506;2023-03-25T14:50:45;10.20;99.90
22319;DHT22;11327;52.334;9.506;2023-03-25T14:54:22;10.10;99.90
22319;DHT22;11327;52.334;9.506;2023-03-25T14:57:43;10.10;99.90
22319;DHT22;11327;52.334;9.506;2023-03-25T15:01:10;9.90;99.90
22319;DHT22;11327;52.334;9.506;2023-03-25T15:04:34;9.80;99.90
22319;DHT22;11327;52.334;9.506;2023-03-25T15:11:33;9.50;99.90
22319;DHT22;11327;52.334;9.506;2023-03-25T15:15:02;9.60;99.90
22319;DHT22;11327;52.334;9.506;2023-03-25T15:22:03;9.70;99.90
22319;DHT22;11327;52.334;9.506;2023-03-25T15:25:27;9.80;99.90
22319;DHT22;11327;52.334;9.506;2023-03-25T15:39:50;9.60;99.90
22319;DHT22;11327;52.334;9.506;2023-03-25T15:57:58;9.50;99.90
22319;DHT22;11327;52.334;9.506;2023-03-25T16:01:31;9.40;99.90
22319;DHT22;11327;52.334;9.506;2023-03-25T16:04:52;9.30;99.90
22319;DHT22;11327;52.334;9.506;2023-03-25T16:08:21;9.30;99.90
22319;DHT22;11327;52.334;9.506;2023-03-25T16:11:41;9.30;99.90
22319;DHT22;11327;52.334;9.506;2023-03-25T16:15:06;9.20;99.90
22319;DHT22;11327;52.334;9.506;2023-03-25T16:18:27;9.30;99.90
22319;DHT22;11327;52.334;9.506;2023-03-25T16:21:51;9.20;99.90
22319;DHT22;11327;52.334;9.506;2023-03-25T16:25:15;9.40;99.90
22319;DHT22;11327;52.334;9.506;2023-03-25T16:28:39;9.60;99.90
22319;DHT22;11327;52.334;9.506;2023-03-25T16:32:04;9.70;99.90
22319;DHT22;11327;52.334;9.506;2023-03-25T16:35:26;9.70;99.90
22319;DHT22;11327;52.334;9.506;2023-03-25T16:38:47;9.70;99.90
22319;DHT22;11327;52.334;9.506;2023-03-25T16:42:18;9.70;99.90
22319;DHT22;11327;52.334;9.506;2023-03-25T16:45:39;9.70;99.90
22319;DHT22;11327;52.334;9.506;2023-03-25T16:49:05;9.80;99.90
22319;DHT22;11327;52.334;9.506;2023-03-25T16:52:28;9.70;99.90
22319;DHT22;11327;52.334;9.506;2023-03-25T16:59:36;9.70;99.90
22319;DHT22;11327;52.334;9.506;2023-03-25T17:02:57;9.70;99.90
22319;DHT22;11327;52.334;9.506;2023-03-25T17:06:29;9.70;99.90
22319;DHT22;11327;52.334;9.506;2023-03-25T17:09:52;9.70;99.90
22319;DHT22;11327;52.334;9.506;2023-03-25T17:13:18;9.60;99.90
22319;DHT22;11327;52.334;9.506;2023-03-25T17:16:41;9.60;99.90
22319;DHT22;11327;52.334;9.506;2023-03-25T17:20:05;9.60;99.90
22319;DHT22;11327;52.334;9.506;2023-03-25T17:23:36;9.60;99.90
22319;DHT22;11327;52.334;9.506;2023-03-25T17:27:18;9.60;99.90
22319;DHT22;11327;52.334;9.506;2023-03-25T17:34:13;9.60;99.90
22319;DHT22;11327;52.334;9.506;2023-03-25T17:37:35;9.60;99.90
22319;DHT22;11327;52.334;9.506;2023-03-25T17:41:03;9.60;99.90
22319;DHT22;11327;52.334;9.506;2023-03-25T17:44:34;9.60;99.90
22319;DHT22;11327;52.334;9.506;2023-03-25T17:47:56;9.60;99.90
22319;DHT22;11327;52.334;9.506;2023-03-25T17:51:17;9.60;99.90
22319;DHT22;11327;52.334;9.506;2023-03-25T17:54:40;9.40;99.90
22319;DHT22;11327;52.334;9.506;2023-03-25T17:58:00;9.40;99.90
22319;DHT22;11327;52.334;9.506;2023-03-25T18:01:21;9.40;99.90
22319;DHT22;11327;52.334;9.506;2023-03-25T18:04:43;9.50;99.90
22319;DHT22;11327;52.334;9.506;2023-03-25T18:08:05;9.40;99.90
22319;DHT22;11327;52.334;9.506;2023-03-25T18:11:26;9.40;99.90
22319;DHT22;11327;52.334;9.506;2023-03-25T18:14:46;9.30;99.90
22319;DHT22;11327;52.334;9.506;2023-03-25T18:18:22;9.30;99.90
22319;DHT22;11327;52.334;9.506;2023-03-25T18:21:40;9.20;99.90
22319;DHT22;11327;52.334;9.506;2023-03-25T18:25:00;9.10;99.90
22319;DHT22;11327;52.334;9.506;2023-03-25T18:28:22;9.00;99.90
22319;DHT22;11327;52.334;9.506;2023-03-25T18:31:44;9.00;99.90
22319;DHT22;11327;52.334;9.506;2023-03-25T18:35:06;9.00;99.90
22319;DHT22;11327;52.334;9.506;2023-03-25T18:38:27;8.90;99.90
22319;DHT22;11327;52.334;9.506;2023-03-25T18:41:48;8.90;99.90
22319;DHT22;11327;52.334;9.506;2023-03-25T18:45:10;8.90;99.90
22319;DHT22;11327;52.334;9.506;2023-03-25T18:48:31;8.90;99.90
22319;DHT22;11327;52.334;9.506;2023-03-25T18:51:52;8.90;99.90
22319;DHT22;11327;52.334;9.506;2023-03-25T18:55:13;8.90;99.90
22319;DHT22;11327;52.334;9.506;2023-03-25T18:58:35;8.90;99.90
22319;DHT22;11327;52.334;9.506;2023-03-25T19:01:56;8.90;99.90
22319;DHT22;11327;52.334;9.506;2023-03-25T19:05:21;8.90;99.90
22319;DHT22;11327;52.334;9.506;2023-03-25T19:08:44;8.80;99.90
22319;DHT22;11327;52.334;9.506;2023-03-25T19:12:06;8.80;99.90
22319;DHT22;11327;52.334;9.506;2023-03-25T19:15:27;8.80;99.90
22319;DHT22;11327;52.334;9.506;2023-03-25T19:18:49;8.80;99.90
22319;DHT22;11327;52.334;9.506;2023-03-25T19:22:10;8.80;99.90
22319;DHT22;11327;52.334;9.506;2023-03-25T19:25:32;8.80;99.90
22319;DHT22;11327;52.334;9.506;2023-03-25T19:28:53;8.80;99.90
22319;DHT22;11327;52.334;9.506;2023-03-25T19:32:13;8.70;99.90
22319;DHT22;11327;52.334;9.506;2023-03-25T19:35:34;8.70;99.90
22319;DHT22;11327;52.334;9.506;2023-03-25T19:38:55;8.60;99.90
22319;DHT22;11327;52.334;9.506;2023-03-25T19:42:17;8.60;99.90
22319;DHT22;11327;52.334;9.506;2023-03-25T19:45:38;8.60;99.90
22319;DHT22;11327;52.334;9.506;2023-03-25T19:48:59;8.50;99.90
22319;DHT22;11327;52.334;9.506;2023-03-25T19:52:20;8.50;99.90
22319;DHT22;11327;52.334;9.506;2023-03-25T19:55:42;8.60;99.90
22319;DHT22;11327;52.334;9.506;2023-03-25T19:59:03;8.50;99.90
22319;DHT22;11327;52.334;9.506;2023-03-25T20:02:24;8.40;99.90
22319;DHT22;11327;52.334;9.506;2023-03-25T20:05:45;8.40;99.90
22319;DHT22;11327;52.334;9.506;2023-03-25T20:09:06;8.40;99.90
22319;DHT22;11327;52.334;9.506;2023-03-25T20:12:28;8.40;99.90
22319;DHT22;11327;52.334;9.506;2023-03-25T20:15:50;8.40;99.90
22319;DHT22;11327;52.334;9.506;2023-03-25T20:19:11;8.40;99.90
22319;DHT22;11327;52.334;9.506;2023-03-25T20:22:33;8.40;99.90
22319;DHT22;11327;52.334;9.506;2023-03-25T20:25:54;8.40;99.90
22319;DHT22;11327;52.334;9.506;2023-03-25T20:29:14;8.40;99.90
22319;DHT22;11327;52.334;9.506;2023-03-25T20:32:37;8.40;99.90
22319;DHT22;11327;52.334;9.506;2023-03-25T20:35:57;8.50;99.90
22319;DHT22;11327;52.334;9.506;2023-03-25T20:39:18;8.50;99.90
22319;DHT22;11327;52.334;9.506;2023-03-25T20:42:41;8.50;99.90
22319;DHT22;11327;52.334;9.506;2023-03-25T20:46:02;8.50;99.90
22319;DHT22;11327;52.334;9.506;2023-03-25T20:49:23;8.60;99.90
22319;DHT22;11327;52.334;9.506;2023-03-25T20:52:44;8.60;99.90
22319;DHT22;11327;52.334;9.506;2023-03-25T20:56:05;8.60;99.90
22319;DHT22;11327;52.334;9.506;2023-03-25T20:59:26;8.60;99.90
22319;DHT22;11327;52.334;9.506;2023-03-25T21:02:46;8.60;99.90
22319;DHT22;11327;52.334;9.506;2023-03-25T21:06:09;8.60;99.90
22319;DHT22;11327;52.334;9.506;2023-03-25T21:09:30;8.60;99.90
22319;DHT22;11327;52.334;9.506;2023-03-25T21:12:51;8.60;99.90
22319;DHT22;11327;52.334;9.506;2023-03-25T21:16:11;8.50;99.90
22319;DHT22;11327;52.334;9.506;2023-03-25T21:19:33;8.50;99.90
22319;DHT22;11327;52.334;9.506;2023-03-25T21:22:54;8.50;99.90
22319;DHT22;11327;52.334;9.506;2023-03-25T21:26:16;8.50;99.90
22319;DHT22;11327;52.334;9.506;2023-03-25T21:29:37;8.50;99.90
22319;DHT22;11327;52.334;9.506;2023-03-25T21:32:58;8.50;99.90
22319;DHT22;11327;52.334;9.506;2023-03-25T21:36:27;8.50;99.90
22319;DHT22;11327;52.334;9.506;2023-03-25T21:39:47;8.50;99.90
22319;DHT22;11327;52.334;9.506;2023-03-25T21:43:09;8.50;99.90
22319;DHT22;11327;52.334;9.506;2023-03-25T21:46:31;8.60;99.90
22319;DHT22;11327;52.334;9.506;2023-03-25T21:49:52;8.50;99.90
22319;DHT22;11327;52.334;9.506;2023-03-25T21:53:14;8.50;99.90
22319;DHT22;11327;52.334;9.506;2023-03-25T21:56:38;8.60;99.90
22319;DHT22;11327;52.334;9.506;2023-03-25T22:00:00;8.60;99.90
22319;DHT22;11327;52.334;9.506;2023-03-25T22:03:21;8.60;99.90
22319;DHT22;11327;52.334;9.506;2023-03-25T22:06:42;8.60;99.90
22319;DHT22;11327;52.334;9.506;2023-03-25T22:10:04;8.60;99.90
22319;DHT22;11327;52.334;9.506;2023-03-25T22:13:25;8.60;99.90
22319;DHT22;11327;52.334;9.506;2023-03-25T22:16:45;8.50;99.90
22319;DHT22;11327;52.334;9.506;2023-03-25T22:20:07;8.50;99.90
22319;DHT22;11327;52.334;9.506;2023-03-25T22:23:28;8.50;99.90
22319;DHT22;11327;52.334;9.506;2023-03-25T22:26:48;8.50;99.90
22319;DHT22;11327;52.334;9.506;2023-03-25T22:30:10;8.50;99.90
22319;DHT22;11327;52.334;9.506;2023-03-25T22:33:31;8.50;99.90
22319;DHT22;11327;52.334;9.506;2023-03-25T22:36:54;8.50;99.90
22319;DHT22;11327;52.334;9.506;2023-03-25T22:40:14;8.50;99.90
22319;DHT22;11327;52.334;9.506;2023-03-25T22:43:35;8.50;99.90
22319;DHT22;11327;52.334;9.506;2023-03-25T22:46:56;8.50;99.90
22319;DHT22;11327;52.334;9.506;2023-03-25T22:50:17;8.50;99.90
22319;DHT22;11327;52.334;9.506;2023-03-25T22:53:38;8.50;99.90
22319;DHT22;11327;52.334;9.506;2023-03-25T22:56:59;8.50;99.90
22319;DHT22;11327;52.334;9.506;2023-03-25T23:00:26;8.50;99.90
22319;DHT22;11327;52.334;9.506;2023-03-25T23:03:46;8.50;99.90
22319;DHT22;11327;52.334;9.506;2023-03-25T23:07:07;8.50;99.90
22319;DHT22;11327;52.334;9.506;2023-03-25T23:10:28;8.50;99.90
22319;DHT22;11327;52.334;9.506;2023-03-25T23:13:51;8.50;99.90
22319;DHT22;11327;52.334;9.506;2023-03-25T23:17:11;8.60;99.90
22319;DHT22;11327;52.334;9.506;2023-03-25T23:20:32;8.50;99.90
22319;DHT22;11327;52.334;9.506;2023-03-25T23:23:58;8.60;99.90
22319;DHT22;11327;52.334;9.506;2023-03-25T23:27:19;8.60;99.90
22319;DHT22;11327;52.334;9.506;2023-03-25T23:30:43;8.60;99.90
22319;DHT22;11327;52.334;9.506;2023-03-25T23:34:06;8.60;99.90
22319;DHT22;11327;52.334;9.506;2023-03-25T23:37:28;8.70;99.90
22319;DHT22;11327;52.334;9.506;2023-03-25T23:40:58;8.60;99.90
22319;DHT22;11327;52.334;9.506;2023-03-25T23:44:20;8.60;99.90
22319;DHT22;11327;52.334;9.506;2023-03-25T23:47:41;8.70;99.90
22319;DHT22;11327;52.334;9.506;2023-03-25T23:51:02;8.60;99.90
22319;DHT22;11327;52.334;9.506;2023-03-25T23:54:22;8.60;99.90
22319;DHT22;11327;52.334;9.506;2023-03-25T23:57:43;8.60;99.90
